Time;durP1;ratioP1;P1;durP2;ratioP2;P2;SDS_P1;SDS_P2;PMS_P1;PMS_P2;Temp;Humidity;BMP_temperature;BMP_pressure;BME280_temperature;BME280_humidity;BME280_pressure;Samples;Min_cycle;Max_cycle;Signal;HPM_P1;HPM_P2
2021/12/28 00:00:27;;;;;;;25.30;9.93;;;;;;;3.41;100.00;96216.22;5092652;28;20489;-34
2021/12/28 00:02:56;;;;;;;15.50;8.20;;;;;;;3.18;100.00;96227.13;5093292;28;20443;-35
2021/12/28 00:05:24;;;;;;;24.13;8.57;;;;;;;3.01;100.00;96225.94;5093648;28;20449;-35
2021/12/28 00:07:52;;;;;;;13.83;7.37;;;;;;;2.89;100.00;96222.31;5093356;28;20439;-34
2021/12/28 00:10:21;;;;;;;12.03;6.47;;;;;;;2.83;100.00;96227.34;5093708;28;20806;-34
2021/12/28 00:12:49;;;;;;;12.37;7.10;;;;;;;2.80;100.00;96224.34;5093667;28;20450;-34
2021/12/28 00:15:32;;;;;;;15.90;10.37;;;;;;;2.79;100.00;96226.13;5093357;28;20530;-34
2021/12/28 00:18:03;;;;;;;18.60;9.87;;;;;;;2.77;100.00;96225.53;5093690;28;20439;-34
2021/12/28 00:20:34;;;;;;;21.60;8.30;;;;;;;2.59;100.00;96206.97;5093038;28;20498;-34
2021/12/28 00:23:02;;;;;;;19.97;9.53;;;;;;;2.79;100.00;96226.13;5093282;28;20454;-34
2021/12/28 00:25:31;;;;;;;26.63;12.47;;;;;;;2.78;100.00;96216.66;5093244;28;20438;-33
2021/12/28 00:27:59;;;;;;;22.50;12.70;;;;;;;3.00;100.00;96235.63;5093254;28;20521;-34
2021/12/28 00:30:26;;;;;;;15.70;10.10;;;;;;;3.12;100.00;96230.59;5093443;28;20450;-34
2021/12/28 00:32:56;;;;;;;22.70;10.87;;;;;;;3.14;100.00;96246.13;5093117;28;20449;-34
2021/12/28 00:35:25;;;;;;;21.77;11.77;;;;;;;3.20;100.00;96261.03;5093126;28;20479;-34
2021/12/28 00:37:52;;;;;;;64.07;25.47;;;;;;;3.17;100.00;96232.59;5093483;28;20451;-34
2021/12/28 00:40:20;;;;;;;36.20;18.13;;;;;;;3.37;100.00;96261.44;5093011;28;20827;-35
2021/12/28 00:42:49;;;;;;;16.70;8.27;;;;;;;3.30;100.00;96245.72;5093390;28;20443;-35
2021/12/28 00:45:16;;;;;;;20.47;10.50;;;;;;;3.16;100.00;96229.19;5093065;28;20444;-34
2021/12/28 00:47:43;;;;;;;23.33;12.90;;;;;;;3.30;100.00;96234.41;5092980;28;20434;-34
2021/12/28 00:50:13;;;;;;;72.17;23.30;;;;;;;3.22;100.00;96223.09;5092991;28;20447;-34
2021/12/28 00:52:41;;;;;;;54.37;23.50;;;;;;;3.41;100.00;96239.03;5092940;28;20449;-34
2021/12/28 00:55:10;;;;;;;145.93;54.30;;;;;;;3.44;100.00;96233.38;5092939;28;20439;-34
2021/12/28 00:57:37;;;;;;;132.00;48.70;;;;;;;3.51;100.00;96226.31;5093190;28;20443;-34
2021/12/28 01:00:09;;;;;;;159.83;54.03;;;;;;;3.58;100.00;96229.72;5092881;28;20493;-34
2021/12/28 01:02:36;;;;;;;41.33;19.73;;;;;;;3.64;100.00;96236.75;5092900;28;20953;-35
2021/12/28 01:05:05;;;;;;;47.17;19.50;;;;;;;3.62;100.00;96223.03;5092852;28;20439;-33
2021/12/28 01:07:32;;;;;;;37.93;11.07;;;;;;;3.74;100.00;96238.16;5092817;28;20446;-32
2021/12/28 01:09:59;;;;;;;13.77;7.03;;;;;;;3.76;100.00;96234.31;5093114;28;20806;-32
2021/12/28 01:12:27;;;;;;;25.07;9.77;;;;;;;3.75;100.00;96224.03;5094455;28;20477;-32
2021/12/28 01:14:54;;;;;;;21.23;10.20;;;;;;;3.76;100.00;96228.25;5096386;28;20434;-32
2021/12/28 01:17:23;;;;;;;20.37;8.43;;;;;;;3.76;100.00;96228.25;5096756;28;20447;-32
2021/12/28 01:19:50;;;;;;;16.73;9.50;;;;;;;3.75;100.00;96216.16;5096041;28;20544;-32
2021/12/28 01:22:17;;;;;;;26.27;10.83;;;;;;;3.72;100.00;96216.53;5096287;28;20954;-33
2021/12/28 01:24:45;;;;;;;24.70;11.73;;;;;;;3.73;100.00;96218.97;5096293;28;20439;-31
2021/12/28 01:27:12;;;;;;;23.93;10.80;;;;;;;3.75;100.00;96210.91;5096172;28;20449;-32
2021/12/28 01:29:39;;;;;;;18.60;8.80;;;;;;;3.59;100.00;96191.97;5096260;28;20447;-33
2021/12/28 01:32:08;;;;;;;24.13;8.50;;;;;;;3.67;100.00;96198.78;5096490;28;20438;-33
2021/12/28 01:34:37;;;;;;;12.40;9.40;;;;;;;3.74;100.00;96209.25;5096192;28;20496;-32
2021/12/28 01:37:05;;;;;;;16.20;8.37;;;;;;;3.75;100.00;96200.41;5096353;28;20439;-33
2021/12/28 01:39:33;;;;;;;14.93;7.73;;;;;;;3.66;100.00;96207.69;5095922;28;21001;-32
2021/12/28 01:42:02;;;;;;;14.93;8.60;;;;;;;3.60;100.00;96193.56;5096319;28;20466;-32
2021/12/28 01:44:30;;;;;;;15.47;9.80;;;;;;;3.48;100.00;96179.44;5096794;28;20454;-33
2021/12/28 01:46:57;;;;;;;10.00;7.07;;;;;;;3.47;100.00;96194.41;5095890;28;20443;-32
2021/12/28 01:49:25;;;;;;;15.87;7.40;;;;;;;3.38;100.00;96192.22;5096105;28;20454;-32
2021/12/28 01:51:54;;;;;;;10.67;5.80;;;;;;;3.12;100.00;96177.31;5095744;28;20458;-32
2021/12/28 01:54:21;;;;;;;18.30;10.10;;;;;;;3.28;100.00;96203.91;5095720;28;20930;-31
2021/12/28 01:56:49;;;;;;;13.73;9.07;;;;;;;3.20;100.00;96206.75;5095960;28;20439;-31
2021/12/28 01:59:19;;;;;;;18.45;7.15;;;;;;;3.17;100.00;96199.31;5086258;28;20455;-32
2021/12/28 02:01:47;;;;;;;19.33;7.30;;;;;;;3.10;100.00;96201.13;5075638;28;20928;-32
2021/12/28 02:04:16;;;;;;;9.70;6.53;;;;;;;3.00;100.00;96187.63;5079375;28;20455;-31
2021/12/28 02:06:44;;;;;;;17.53;7.60;;;;;;;3.00;100.00;96203.34;5087433;28;20452;-30
2021/12/28 02:09:13;;;;;;;18.83;7.83;;;;;;;2.92;100.00;96198.31;5075219;28;20444;-31
2021/12/28 02:11:41;;;;;;;22.60;9.77;;;;;;;2.90;100.00;96203.75;5075182;28;20444;-32
2021/12/28 02:14:09;;;;;;;23.17;10.87;;;;;;;2.92;100.00;96200.94;5075048;28;20428;-32
2021/12/28 02:16:39;;;;;;;28.70;8.80;;;;;;;2.73;100.00;96198.13;5075339;28;20447;-31
2021/12/28 02:19:07;;;;;;;24.07;9.63;;;;;;;2.76;100.00;96192.47;5074981;28;20436;-33
2021/12/28 02:21:36;;;;;;;23.30;10.03;;;;;;;2.71;100.00;96213.25;5074719;28;20503;-31
2021/12/28 02:24:06;;;;;;;21.90;8.60;;;;;;;2.61;100.00;96204.97;5074126;28;20490;-31
2021/12/28 02:26:35;;;;;;;12.70;7.83;;;;;;;2.58;100.00;96200.94;5074805;28;20447;-32
2021/12/28 02:29:03;;;;;;;16.10;7.40;;;;;;;2.59;100.00;96209.59;5074788;28;20443;-31
2021/12/28 02:31:30;;;;;;;18.63;7.67;;;;;;;2.63;100.00;96210.81;5074750;28;20452;-32
2021/12/28 02:33:58;;;;;;;18.23;8.80;;;;;;;2.74;100.00;96204.97;5094540;28;20439;-33
2021/12/28 02:36:26;;;;;;;21.03;8.73;;;;;;;2.76;100.00;96212.63;5095126;28;20447;-33
2021/12/28 02:38:55;;;;;;;18.50;8.07;;;;;;;2.80;100.00;96209.41;5094857;28;20447;-34
2021/12/28 02:41:22;;;;;;;22.57;8.40;;;;;;;2.96;100.00;96218.69;5095080;28;20886;-33
2021/12/28 02:43:49;;;;;;;14.87;8.00;;;;;;;3.06;100.00;96208.59;5094810;28;20443;-33
2021/12/28 02:46:17;;;;;;;15.77;7.57;;;;;;;3.18;100.00;96213.22;5094727;28;20474;-33
2021/12/28 02:48:45;;;;;;;16.90;7.47;;;;;;;3.27;100.00;96210.19;5094894;28;20534;-34
2021/12/28 02:51:15;;;;;;;23.83;8.77;;;;;;;3.34;100.00;96204.13;5094573;28;20629;-33
2021/12/28 02:53:44;;;;;;;10.07;6.50;;;;;;;3.41;100.00;96199.66;5094517;28;20454;-34
2021/12/28 02:56:16;;;;;;;15.13;6.80;;;;;;;3.46;100.00;96202.47;5094496;28;20445;-34
2021/12/28 02:58:45;;;;;;;15.87;8.00;;;;;;;3.52;100.00;96198.22;5094785;28;20442;-33
2021/12/28 03:01:15;;;;;;;15.10;7.47;;;;;;;3.52;100.00;96196.41;5090040;28;20720;-34
2021/12/28 03:03:44;;;;;;;17.03;8.03;;;;;;;3.54;100.00;96204.09;5092890;28;20806;-34
2021/12/28 03:06:15;;;;;;;18.73;7.47;;;;;;;3.57;100.00;96208.91;5075377;28;20432;-34
2021/12/28 03:08:48;;;;;;;15.00;6.90;;;;;;;3.56;100.00;96208.09;5073817;28;20432;-34
2021/12/28 03:11:17;;;;;;;14.07;7.33;;;;;;;3.56;100.00;96199.44;5073981;28;20793;-33
2021/12/28 03:13:47;;;;;;;17.97;8.03;;;;;;;3.54;100.00;96194.38;5074173;28;20459;-34
2021/12/28 03:16:16;;;;;;;17.23;7.63;;;;;;;3.63;100.00;96208.88;5073836;28;20432;-34
2021/12/28 03:18:44;;;;;;;16.03;7.17;;;;;;;3.64;100.00;96215.75;5074062;28;20440;-34
2021/12/28 03:21:14;;;;;;;19.97;7.00;;;;;;;3.61;100.00;96199.59;5073464;28;20587;-33
2021/12/28 03:23:42;;;;;;;15.97;7.60;;;;;;;3.72;100.00;96206.03;5073787;28;20439;-33
2021/12/28 03:26:10;;;;;;;13.90;6.83;;;;;;;3.73;100.00;96207.66;5073988;28;20475;-33
2021/12/28 03:28:41;;;;;;;21.17;6.83;;;;;;;3.74;100.00;96198.75;5073635;28;20549;-33
2021/12/28 03:31:11;;;;;;;12.00;7.43;;;;;;;3.71;100.00;96196.56;5073978;28;20435;-34
2021/12/28 03:33:40;;;;;;;14.97;8.63;;;;;;;3.70;100.00;96206.25;5073923;28;20821;-33
2021/12/28 03:36:08;;;;;;;17.63;9.90;;;;;;;3.72;100.00;96201.59;5073361;28;20440;-33
2021/12/28 03:38:36;;;;;;;10.40;7.40;;;;;;;3.75;100.00;96189.88;5073558;28;20530;-34
2021/12/28 03:41:07;;;;;;;16.80;8.00;;;;;;;3.78;100.00;96189.47;5073690;28;20509;-33
2021/12/28 03:43:36;;;;;;;16.67;8.40;;;;;;;3.81;100.00;96192.50;5073499;28;20428;-34
2021/12/28 03:46:05;;;;;;;15.93;8.20;;;;;;;3.83;100.00;96198.34;5073774;28;20839;-33
2021/12/28 03:48:33;;;;;;;18.97;10.43;;;;;;;3.83;100.00;96198.34;5073704;28;20813;-34
2021/12/28 03:51:00;;;;;;;19.67;9.00;;;;;;;3.80;100.00;96176.94;5073424;28;20542;-34
2021/12/28 03:53:27;;;;;;;18.60;10.00;;;;;;;3.63;100.00;96173.97;5073301;28;20442;-34
2021/12/28 03:55:55;;;;;;;15.60;9.13;;;;;;;3.77;100.00;96193.13;5073300;28;20535;-34
2021/12/28 03:58:22;;;;;;;14.00;7.30;;;;;;;3.77;100.00;96187.88;5073303;28;20450;-34
2021/12/28 04:00:50;;;;;;;16.70;8.07;;;;;;;3.74;100.00;96199.56;5073173;28;20483;-34
2021/12/28 04:03:19;;;;;;;22.20;9.97;;;;;;;3.74;100.00;96190.88;5082877;28;20447;-35
2021/12/28 04:05:46;;;;;;;20.93;8.87;;;;;;;3.78;100.00;96202.59;5093722;28;20449;-34
2021/12/28 04:08:16;;;;;;;16.97;9.43;;;;;;;3.81;100.00;96194.31;5093392;28;20460;-34
2021/12/28 04:10:52;;;;;;;32.53;12.77;;;;;;;3.81;100.00;96195.13;5093397;28;20450;-35
2021/12/28 04:13:20;;;;;;;18.90;10.80;;;;;;;3.83;100.00;96198.34;5093733;28;20445;-34
2021/12/28 04:15:48;;;;;;;25.50;12.17;;;;;;;3.84;100.00;96205.19;5093292;28;20826;-34
2021/12/28 04:18:16;;;;;;;21.60;11.07;;;;;;;3.84;100.00;96199.94;5093619;28;20443;-34
2021/12/28 04:20:45;;;;;;;19.70;9.10;;;;;;;3.82;100.00;96207.22;5093024;28;20557;-33
2021/12/28 04:23:13;;;;;;;23.77;11.20;;;;;;;3.84;100.00;96199.13;5093377;28;20980;-33
2021/12/28 04:25:41;;;;;;;24.83;11.60;;;;;;;3.88;100.00;96210.84;5093256;28;20439;-34
2021/12/28 04:28:08;;;;;;;22.57;10.77;;;;;;;3.90;100.00;96200.94;5093184;28;20443;-34
2021/12/28 04:30:37;;;;;;;23.87;11.90;;;;;;;3.87;100.00;96204.78;5093240;28;20948;-34
2021/12/28 04:33:05;;;;;;;21.97;13.37;;;;;;;3.84;100.00;96207.81;5093514;28;20478;-34
2021/12/28 04:35:32;;;;;;;31.30;13.20;;;;;;;3.81;100.00;96210.06;5093223;28;20931;-33
2021/12/28 04:38:01;;;;;;;25.07;14.90;;;;;;;3.79;100.00;96209.47;5093162;28;20443;-33
2021/12/28 04:40:28;;;;;;;25.83;12.40;;;;;;;3.75;100.00;96195.13;5093327;28;20887;-33
2021/12/28 04:42:56;;;;;;;17.40;9.03;;;;;;;3.76;100.00;96207.25;5093415;28;20439;-33
2021/12/28 04:45:23;;;;;;;18.33;8.93;;;;;;;3.76;100.00;96202.00;5092978;28;20442;-34
2021/12/28 04:47:50;;;;;;;22.30;13.37;;;;;;;3.75;100.00;96200.41;5095156;28;20438;-33
2021/12/28 04:50:18;;;;;;;155.27;48.23;;;;;;;3.76;100.00;96202.00;5097250;28;20454;-34
2021/12/28 04:52:45;;;;;;;101.60;41.53;;;;;;;3.77;100.00;96196.53;5097090;28;20439;-34
2021/12/28 04:55:16;;;;;;;82.03;40.50;;;;;;;3.78;100.00;96194.72;5096892;28;20446;-34
2021/12/28 04:57:45;;;;;;;64.73;28.63;;;;;;;3.81;100.00;96199.56;5096836;28;20426;-33
2021/12/28 05:00:16;;;;;;;49.93;22.57;;;;;;;3.82;100.00;96201.16;5096567;28;20926;-32
2021/12/28 05:02:43;;;;;;;60.20;25.47;;;;;;;3.83;100.00;96213.25;5084813;28;20446;-34
2021/12/28 05:05:11;;;;;;;83.30;49.17;;;;;;;3.72;100.00;96219.16;5096566;28;20803;-35
2021/12/28 05:07:39;;;;;;;79.97;52.50;;;;;;;3.68;100.00;96216.97;5096537;28;20443;-34
2021/12/28 05:10:07;;;;;;;64.23;37.77;;;;;;;3.63;100.00;96208.88;5096815;28;20443;-34
2021/12/28 05:12:36;;;;;;;32.17;19.20;;;;;;;3.66;100.00;96199.81;5096461;28;20450;-33
2021/12/28 05:15:04;;;;;;;27.33;14.23;;;;;;;3.66;100.00;96208.50;5096729;28;20438;-35
2021/12/28 05:17:32;;;;;;;22.77;14.60;;;;;;;3.66;100.00;96208.50;5096757;28;20446;-34
2021/12/28 05:19:59;;;;;;;33.87;19.67;;;;;;;3.59;100.00;96202.47;5096137;28;20478;-34
2021/12/28 05:22:27;;;;;;;22.50;12.20;;;;;;;3.44;100.00;96194.81;5096682;28;20988;-33
2021/12/28 05:24:54;;;;;;;35.10;19.40;;;;;;;3.23;100.00;96193.25;5096660;28;20443;-33
2021/12/28 05:27:21;;;;;;;32.30;17.50;;;;;;;3.25;100.00;96203.53;5096240;28;20506;-34
2021/12/28 05:29:51;;;;;;;32.93;15.47;;;;;;;3.25;100.00;96196.47;5094548;28;20447;-34
2021/12/28 05:32:18;;;;;;;19.27;10.73;;;;;;;3.24;100.00;96188.78;5096116;28;20526;-34
2021/12/28 05:34:46;;;;;;;16.33;9.20;;;;;;;3.21;100.00;96200.50;5095548;28;20793;-34
2021/12/28 05:37:13;;;;;;;36.93;21.93;;;;;;;3.23;100.00;96211.59;5095996;28;20447;-33
2021/12/28 05:39:40;;;;;;;34.80;19.63;;;;;;;3.28;100.00;96200.50;5097210;28;20462;-34
2021/12/28 05:42:08;;;;;;;30.03;16.67;;;;;;;3.36;100.00;96199.50;5095929;28;20490;-34
2021/12/28 05:44:36;;;;;;;37.90;19.70;;;;;;;3.43;100.00;96201.06;5096129;28;20443;-34
2021/12/28 05:47:05;;;;;;;48.80;25.50;;;;;;;3.52;100.00;96201.66;5096190;28;20447;-34
2021/12/28 05:49:33;;;;;;;41.73;22.50;;;;;;;3.58;100.00;96206.09;5096073;28;20446;-33
2021/12/28 05:52:00;;;;;;;64.90;32.63;;;;;;;3.62;100.00;96204.66;5090337;28;20449;-34
2021/12/28 05:54:27;;;;;;;101.73;50.50;;;;;;;3.62;100.00;96196.78;5093571;28;20455;-34
2021/12/28 05:56:55;;;;;;;53.63;28.27;;;;;;;3.62;100.00;96202.03;5095882;28;20446;-33
2021/12/28 05:59:22;;;;;;;33.40;21.00;;;;;;;3.63;100.00;96200.22;5095751;28;20447;-34
2021/12/28 06:01:50;;;;;;;35.57;20.00;;;;;;;3.67;100.00;96204.84;5094227;28;20495;-33
2021/12/28 06:04:18;;;;;;;34.93;17.50;;;;;;;3.69;100.00;96208.06;5094576;28;20957;-35
2021/12/28 06:06:46;;;;;;;33.97;18.40;;;;;;;3.68;100.00;96190.72;5093072;28;20443;-34
2021/12/28 06:09:13;;;;;;;28.50;16.33;;;;;;;3.75;100.00;96200.41;5094813;28;20450;-35
2021/12/28 06:11:40;;;;;;;24.70;15.77;;;;;;;3.84;100.00;96199.13;5094414;28;20439;-35
2021/12/28 06:14:08;;;;;;;42.47;21.67;;;;;;;3.96;100.00;96221.13;5094736;28;20439;-34
2021/12/28 06:16:35;;;;;;;77.30;32.17;;;;;;;4.03;100.00;96214.00;5093893;28;20450;-34
2021/12/28 06:19:03;;;;;;;76.33;30.30;;;;;;;4.12;100.00;96205.88;5093962;28;20492;-34
2021/12/28 06:21:33;;;;;;;44.30;23.83;;;;;;;4.15;100.00;96213.34;5093606;28;20506;-33
2021/12/28 06:24:01;;;;;;;37.97;21.10;;;;;;;4.19;100.00;96217.16;5092872;28;20866;-33
2021/12/28 06:26:29;;;;;;;37.90;20.23;;;;;;;4.23;100.00;96213.09;5092477;28;20518;-35
2021/12/28 06:28:58;;;;;;;56.73;30.87;;;;;;;4.21;100.00;96208.06;5090377;28;20539;-35
2021/12/28 06:31:28;;;;;;;46.33;29.23;;;;;;;4.59;100.00;96230.09;5093333;28;20473;-34
2021/12/28 06:33:57;;;;;;;141.63;84.30;;;;;;;4.83;99.11;96213.53;5093956;28;20441;-35
2021/12/28 06:36:25;;;;;;;49.47;27.80;;;;;;;5.10;98.44;96203.63;5093439;28;20922;-35
2021/12/28 06:38:54;;;;;;;53.13;30.20;;;;;;;5.42;97.54;96205.34;5093641;28;20449;-34
2021/12/28 06:41:22;;;;;;;29.57;16.57;;;;;;;5.71;96.28;96199.38;5094045;28;20505;-33
2021/12/28 06:43:50;;;;;;;71.77;37.23;;;;;;;5.93;93.97;96207.63;5093832;28;20450;-34
2021/12/28 06:46:17;;;;;;;60.03;29.70;;;;;;;5.86;93.01;96193.72;5093599;28;20435;-34
2021/12/28 06:48:45;;;;;;;39.63;23.57;;;;;;;5.84;91.64;96208.16;5093426;28;20443;-34
2021/12/28 06:51:14;;;;;;;67.03;40.63;;;;;;;5.71;91.58;96212.53;5092270;28;20459;-34
2021/12/28 06:53:42;;;;;;;75.70;43.10;;;;;;;5.61;92.32;96212.22;5091948;28;20518;-35
2021/12/28 06:56:10;;;;;;;67.80;36.23;;;;;;;5.57;92.44;96212.88;5091883;28;20538;-34
2021/12/28 06:58:38;;;;;;;67.90;40.17;;;;;;;5.65;93.75;96213.41;5091618;28;20443;-35
2021/12/28 07:01:05;;;;;;;104.77;56.17;;;;;;;5.82;93.33;96215.47;5092728;28;20527;-35
2021/12/28 07:03:33;;;;;;;47.67;26.30;;;;;;;5.93;92.72;96206.81;5091986;28;20454;-34
2021/12/28 07:06:02;;;;;;;33.30;19.50;;;;;;;6.11;90.67;96217.38;5092316;28;20462;-36
2021/12/28 07:08:29;;;;;;;23.63;15.77;;;;;;;5.84;89.78;96202.88;5092204;28;20442;-34
2021/12/28 07:10:57;;;;;;;16.40;8.40;;;;;;;5.93;90.38;96226.06;5092413;28;20500;-35
2021/12/28 07:13:26;;;;;;;11.00;8.07;;;;;;;5.94;90.41;96222.44;5093387;28;20492;-35
2021/12/28 07:15:53;;;;;;;16.43;9.40;;;;;;;6.04;90.67;96219.28;5093061;28;20450;-35
2021/12/28 07:18:20;;;;;;;15.27;7.60;;;;;;;6.05;90.15;96220.91;5083995;28;20446;-33
2021/12/28 07:20:48;;;;;;;23.70;10.63;;;;;;;6.00;90.22;96212.03;5092753;28;20479;-35
2021/12/28 07:23:15;;;;;;;25.20;11.80;;;;;;;5.84;92.59;96210.78;5091351;28;20490;-34
2021/12/28 07:25:43;;;;;;;29.57;15.87;;;;;;;5.66;93.38;96212.41;5091248;28;20522;-33
2021/12/28 07:28:10;;;;;;;15.27;9.70;;;;;;;5.66;92.20;96222.13;5092732;28;20801;-33
2021/12/28 07:30:39;;;;;;;20.33;13.40;;;;;;;5.55;93.44;96215.75;5092762;28;20447;-34
2021/12/28 07:33:07;;;;;;;19.70;9.30;;;;;;;5.57;93.71;96216.34;5094089;28;20438;-33
2021/12/28 07:35:34;;;;;;;17.27;8.90;;;;;;;5.55;93.08;96215.75;5090787;28;20490;-35
2021/12/28 07:38:01;;;;;;;17.20;10.10;;;;;;;5.48;93.94;96204.47;5092353;28;20760;-34
2021/12/28 07:40:28;;;;;;;22.87;9.87;;;;;;;5.57;94.44;96216.34;5093357;28;20457;-35
2021/12/28 07:42:55;;;;;;;12.27;8.23;;;;;;;5.59;94.58;96211.63;5090526;28;20486;-34
2021/12/28 07:45:23;;;;;;;24.00;10.73;;;;;;;5.57;94.56;96216.34;5087122;28;20939;-33
2021/12/28 07:47:52;;;;;;;19.70;11.77;;;;;;;5.63;94.69;96206.75;5072814;28;20451;-33
2021/12/28 07:50:20;;;;;;;40.97;21.93;;;;;;;5.69;94.84;96216.41;5072404;28;20444;-34
2021/12/28 07:52:49;;;;;;;37.87;20.80;;;;;;;5.83;94.89;96210.00;5084316;28;20442;-33
2021/12/28 07:55:17;;;;;;;89.03;49.30;;;;;;;6.05;94.77;96214.84;5091779;28;20447;-34
2021/12/28 07:57:44;;;;;;;53.90;30.70;;;;;;;6.26;94.55;96211.72;5091744;28;20442;-35
2021/12/28 08:00:14;;;;;;;43.47;27.60;;;;;;;6.46;94.44;96210.66;5092577;28;20443;-34
2021/12/28 08:02:42;;;;;;;23.63;16.57;;;;;;;6.65;93.57;96211.41;5091535;28;20490;-34
2021/12/28 08:05:12;;;;;;;48.13;32.50;;;;;;;6.77;92.80;96233.31;5093008;28;20442;-34
2021/12/28 08:07:39;;;;;;;162.57;88.97;;;;;;;6.90;92.48;96230.47;5092669;28;20438;-34
2021/12/28 08:10:08;;;;;;;58.00;33.67;;;;;;;7.06;93.74;96241.44;5090064;28;20443;-31
2021/12/28 08:12:36;;;;;;;96.53;44.90;;;;;;;7.12;92.24;96235.22;5090065;28;20446;-34
2021/12/28 08:15:04;;;;;;;95.90;42.97;;;;;;;7.12;91.36;96235.22;5092515;28;20474;-33
2021/12/28 08:17:31;;;;;;;24.23;17.63;;;;;;;7.06;89.52;96222.97;5092641;28;20518;-32
2021/12/28 08:19:59;;;;;;;15.73;11.00;;;;;;;7.03;89.42;96218.13;5090603;28;20977;-33
2021/12/28 08:22:27;;;;;;;13.00;8.30;;;;;;;6.75;89.58;96188.72;5089611;28;20490;-32
2021/12/28 08:24:55;;;;;;;15.70;9.50;;;;;;;6.65;91.03;96209.56;5091324;28;20795;-33
2021/12/28 08:27:23;;;;;;;17.37;9.63;;;;;;;6.38;90.83;96208.31;5096347;28;20443;-34
2021/12/28 08:29:50;;;;;;;15.97;8.90;;;;;;;6.15;93.58;96218.56;5095188;28;20431;-32
2021/12/28 08:32:18;;;;;;;20.10;10.70;;;;;;;5.94;94.53;96198.72;5094287;28;20442;-31
2021/12/28 08:34:45;;;;;;;15.80;9.27;;;;;;;5.84;94.47;96202.88;5095176;28;20791;-30
2021/12/28 08:37:12;;;;;;;24.20;9.00;;;;;;;5.70;95.16;96197.78;5094340;28;20461;-34
2021/12/28 08:39:41;;;;;;;26.00;12.07;;;;;;;5.66;96.18;96204.50;5094406;28;21162;-35
2021/12/28 08:42:09;;;;;;;32.03;12.07;;;;;;;5.61;97.74;96206.97;5093034;28;20487;-35
2021/12/28 08:44:36;;;;;;;374.03;189.47;;;;;;;5.74;98.48;96198.13;5094101;28;20446;-34
2021/12/28 08:47:04;;;;;;;299.30;139.50;;;;;;;5.82;99.79;96195.19;5095664;28;20443;-34
2021/12/28 08:49:32;;;;;;;46.20;23.40;;;;;;;5.98;98.32;96204.38;5092154;28;20450;-34
2021/12/28 08:51:59;;;;;;;44.53;22.67;;;;;;;5.99;97.84;96208.59;5094287;28;20446;-35
2021/12/28 08:54:26;;;;;;;38.40;19.93;;;;;;;5.96;98.31;96187.97;5095478;28;20814;-35
2021/12/28 08:56:55;;;;;;;32.93;15.77;;;;;;;6.06;98.19;96201.41;5095979;28;20454;-35
2021/12/28 08:59:22;;;;;;;80.00;38.80;;;;;;;6.12;98.97;96195.25;5095260;28;20450;-35
2021/12/28 09:01:50;;;;;;;93.17;45.90;;;;;;;6.25;99.36;96190.84;5095218;28;20824;-34
2021/12/28 09:04:18;;;;;;;81.40;38.60;;;;;;;6.38;99.93;96188.03;5094359;28;20443;-35
2021/12/28 09:06:46;;;;;;;61.30;27.63;;;;;;;6.53;99.54;96185.78;5095653;28;20439;-35
2021/12/28 09:09:14;;;;;;;75.27;36.53;;;;;;;6.69;99.35;96176.44;5087822;28;20529;-35
2021/12/28 09:11:42;;;;;;;62.63;29.90;;;;;;;6.82;98.50;96180.69;5091911;28;20451;-35
2021/12/28 09:14:10;;;;;;;57.13;27.17;;;;;;;6.95;98.37;96180.47;5094928;28;20471;-35
2021/12/28 09:16:38;;;;;;;46.43;28.20;;;;;;;7.17;98.39;96182.56;5095320;28;20787;-35
2021/12/28 09:19:05;;;;;;;57.27;31.53;;;;;;;7.33;97.12;96179.22;5095685;28;20438;-35
2021/12/28 09:21:33;;;;;;;47.17;25.87;;;;;;;7.38;96.16;96176.72;5095079;28;20482;-35
2021/12/28 09:24:00;;;;;;;36.43;20.03;;;;;;;7.26;94.68;96165.34;5095291;28;20622;-34
2021/12/28 09:26:27;;;;;;;45.57;26.20;;;;;;;7.21;95.68;96178.44;5095084;28;20442;-35
2021/12/28 09:28:55;;;;;;;40.07;17.57;;;;;;;7.05;95.52;96182.53;5095264;28;20526;-35
2021/12/28 09:31:23;;;;;;;29.90;14.33;;;;;;;7.09;95.67;96177.63;5095757;28;20931;-35
2021/12/28 09:33:51;;;;;;;26.87;13.40;;;;;;;7.07;95.17;96183.13;5094595;28;20938;-34
2021/12/28 09:36:18;;;;;;;50.80;23.97;;;;;;;7.09;95.82;96182.91;5094672;28;20530;-35
2021/12/28 09:38:46;;;;;;;33.43;15.20;;;;;;;7.06;96.26;96167.53;5095661;28;20522;-35
2021/12/28 09:41:15;;;;;;;56.00;30.40;;;;;;;7.02;95.88;96166.38;5094894;28;20939;-35
2021/12/28 09:43:42;;;;;;;44.57;22.20;;;;;;;6.97;96.75;96167.88;5095318;28;20491;-34
2021/12/28 09:46:09;;;;;;;36.00;17.00;;;;;;;6.84;96.33;96165.44;5094804;28;20812;-35
2021/12/28 09:48:39;;;;;;;28.80;15.93;;;;;;;6.83;97.79;96163.81;5093371;28;20446;-35
2021/12/28 09:51:07;;;;;;;38.47;19.40;;;;;;;6.86;98.22;96163.38;5094928;28;20436;-35
2021/12/28 09:53:35;;;;;;;33.97;17.20;;;;;;;7.01;98.55;96160.28;5093672;28;20442;-34
2021/12/28 09:56:03;;;;;;;21.00;13.67;;;;;;;7.22;98.21;96155.47;5094075;28;20435;-34
2021/12/28 09:58:33;;;;;;;31.23;16.70;;;;;;;7.35;98.11;96156.03;5094399;28;20435;-35
2021/12/28 10:01:01;;;;;;;46.77;19.27;;;;;;;7.40;97.92;96128.94;5088267;28;20452;-35
2021/12/28 10:03:28;;;;;;;41.37;22.87;;;;;;;7.61;97.12;96147.84;5091295;28;20495;-34
2021/12/28 10:05:57;;;;;;;51.03;25.27;;;;;;;7.68;97.36;96144.06;5092571;28;20439;-35
2021/12/28 10:08:25;;;;;;;44.70;22.90;;;;;;;7.85;96.97;96159.16;5092155;28;20439;-34
2021/12/28 10:10:56;;;;;;;27.90;15.67;;;;;;;7.93;96.70;96145.56;5094113;28;20476;-34
2021/12/28 10:13:26;;;;;;;20.00;12.70;;;;;;;8.02;96.42;96149.44;5094270;28;20911;-33
2021/12/28 10:15:54;;;;;;;16.50;9.60;;;;;;;8.03;95.59;96137.06;5093262;28;20470;-33
2021/12/28 10:18:22;;;;;;;20.37;10.83;;;;;;;8.06;95.33;96142.66;5093355;28;20446;-35
2021/12/28 10:20:51;;;;;;;58.67;31.77;;;;;;;8.16;95.84;96145.50;5092061;28;20921;-35
2021/12/28 10:23:23;;;;;;;54.00;23.10;;;;;;;8.32;95.56;96140.47;5093496;28;20497;-35
2021/12/28 10:25:53;;;;;;;102.00;56.33;;;;;;;8.49;95.64;96138.69;5092765;28;20427;-33
2021/12/28 10:28:25;;;;;;;37.83;21.50;;;;;;;8.59;95.39;96132.78;5092074;28;20465;-35
2021/12/28 10:30:54;;;;;;;19.17;12.00;;;;;;;8.57;93.72;96140.94;5093331;28;20424;-33
2021/12/28 10:33:24;;;;;;;15.53;9.97;;;;;;;8.51;92.87;96146.41;5093081;28;20526;-33
2021/12/28 10:35:54;;;;;;;15.57;9.67;;;;;;;8.25;94.37;96147.75;5093578;28;20454;-33
2021/12/28 10:38:25;;;;;;;17.60;9.90;;;;;;;8.07;96.05;96152.22;5093169;28;20438;-33
2021/12/28 10:40:55;;;;;;;28.23;12.07;;;;;;;7.93;96.86;96135.00;5094179;28;20439;-33
2021/12/28 10:43:23;;;;;;;16.00;8.97;;;;;;;7.94;97.24;96152.50;5093132;28;20478;-33
2021/12/28 10:45:54;;;;;;;28.20;15.33;;;;;;;7.84;98.44;96147.00;5091926;28;20455;-33
2021/12/28 10:48:25;;;;;;;26.67;11.80;;;;;;;7.62;97.63;96150.25;5085095;28;20459;-33
2021/12/28 10:51:00;;;;;;;20.90;12.90;;;;;;;7.47;99.19;96150.75;5084223;28;20499;-32
2021/12/28 10:53:36;;;;;;;21.17;11.33;;;;;;;7.43;99.76;96143.53;5078537;28;20464;-33
2021/12/28 10:56:06;;;;;;;12.33;8.47;;;;;;;7.35;99.96;96140.19;5078075;28;20478;-32
2021/12/28 10:58:40;;;;;;;21.60;9.20;;;;;;;7.22;100.00;96148.34;5076892;28;20454;-33
2021/12/28 11:01:11;;;;;;;31.33;19.43;;;;;;;7.15;100.00;96148.47;5082390;28;20962;-33
2021/12/28 11:03:41;;;;;;;29.47;16.73;;;;;;;7.23;100.00;96142.03;5082491;28;20479;-33
2021/12/28 11:06:12;;;;;;;23.00;13.03;;;;;;;7.24;100.00;96143.63;5093512;28;20816;-33
2021/12/28 11:08:42;;;;;;;23.67;11.83;;;;;;;7.18;100.00;96123.44;5083604;28;20501;-33
2021/12/28 11:11:11;;;;;;;27.43;12.63;;;;;;;7.15;100.00;96142.38;5090912;28;20463;-33
2021/12/28 11:13:38;;;;;;;22.57;9.83;;;;;;;7.20;100.00;96145.13;5093175;28;20900;-33
2021/12/28 11:16:08;;;;;;;14.47;8.53;;;;;;;7.28;100.00;96144.78;5093405;28;20927;-33
2021/12/28 11:18:37;;;;;;;19.13;7.93;;;;;;;7.31;100.00;96135.59;5081018;28;20470;-33
2021/12/28 11:21:13;;;;;;;13.80;7.80;;;;;;;7.24;100.00;96130.44;5084916;28;20533;-33
2021/12/28 11:23:42;;;;;;;33.37;8.60;;;;;;;7.22;100.00;96140.44;5083652;28;20475;-33
2021/12/28 11:26:18;;;;;;;24.10;11.63;;;;;;;7.12;100.00;96140.19;5077050;28;20919;-32